ADDS TAF Board (Experimental) INFO Settings

IDs: Format: Expanded Condensed

KTPA - Tampa Intl Arpt, FL, US

Issued at 1453 UTC 27 Feb 2015
Updated at: 1516 UTC 27 Feb 2015
Time1453Z 27/16Z 27/17Z 27/18Z 27/19Z 27/20Z 27/21Z 27/22Z 27/23Z 28/00Z 28/01Z 28/02Z 28/03Z 28/04Z
Type OBS PRVL PRVL PRVL PRVL PRVL PRVL PRVL PRVL PRVL PRVL PRVL PRVL PRVL
VIS 10 >6 >6 >6 >6 >6 >6 >6 >6 >6 >6 >6 >6 >6
CIG 21 20 25 25 25 25 25 25 25 25 25 25 15 15
Cover OVC OVC OVC OVC OVC OVC OVC OVC OVC OVC OVC OVC BKN BKN
FltCat MVFR MVFR MVFR MVFR MVFR MVFR MVFR MVFR MVFR MVFR MVFR MVFR MVFR MVFR
WX -- -- -- -- -- -- -- -- -- -- -- -- -- --
WDir 30 30 30 30 30 30 30 30 30 30 30 30 30 30
WSpd 8 9 10 10 10 10 10 10 10 10 10 10 11 11
WGst -- -- -- -- -- -- -- -- -- -- -- -- -- --
R01/19
XWnd -4 -4 -5 -5 -5 -5 -5 -5 -5 -5 -5 -5 -5 -5
HWnd 7 8 9 9 9 9 9 9 9 9 9 9 10 10
R10/28
XWnd 7 8 9 9 9 9 9 9 9 9 9 9 10 10
HWnd 4 4 5 5 5 5 5 5 5 5 5 5 5 5

NOTE: TEMPO conditions in [brackets]. Keep in mind TEMPO conditions might be better (lower impact) than prevailing conditions.

Raw TAF
KTPA 271453Z 2715/2812 03009KT P6SM OVC020
  FM271700 03010KT P6SM BKN025 OVC050
  FM280300 03011KT P6SM BKN015


Raw METAR
KTPA 271453Z 03008KT 10SM OVC021 13/07 A3023 RMK AO2 SLP237 T01330072 51028
KTPA 271353Z 02010KT 10SM OVC020 12/07 A3022 RMK AO2 SLP232 T01220067
KTPA 271253Z 02008KT 10SM OVC019 12/08 A3019 RMK AO2 SLP221 T01220078

METAR Board
Radar Display
Forecast Discussion

TAF Board Legend

Potential Impact
Threat None Slight Moderate High
Visibility (sm) ≥5.1 5.1>X≥3 3>X≥1 <1
Ceiling (100 ft) ≥30.1 30.1>X≥10 10>X≥5 <5
Wind Speed (kt) <10 10≤X<20 20≤X<30 ≥30
Wind Gust (kt) <15 15≤X<25 25≤X<35 ≥35
Weather No Wx Reported VCTS,-TS,-FZRA,SN TS,FZRA +TS,+FZRA,+SN